PILOTS ONLINE: 611    ATC ONLINE: 111

KSKA - Fairchild Air Force Base

Location

IATA SKA
City Spokane
Country  United States
Latitude 47° 36' 54" N
Longitude 117° 39' 21" W
Elevation 2461 ft
Type Large Airport

Runways

05/23 13901 ft / 200 ft

Weather

METAR
2014/07/31 18:58
KSKA 311858Z AUTO 21004KT 10SM CLR 33/06 A3008 RMK AO2 RAB1841E1848DZB1838 SLP167 P0000 T03280057
TAF
2014/07/31 19:09
TAF TAF KSKA 3119/0201 21006KT 9999 SKC QNH3001INS 
      BECMG 0100/0101 32005KT 9999 SKC QNH3000INS 
      BECMG 0118/0119 VRB05KT 9999 BKN150 QNH3000INS TX36/3123Z TN20/0112Z

Outbound flights

Inbound flights